Home > Products > Valid Products > MTR

000
SAUS45 KABQ 211607
MTRCQC
SPECI KCQC 211606Z AUTO 08018KT 10SM SCT014 SCT022 BKN026 18/12
A3042 RMK AO2 T01780122





000
SAUS45 KABQ 211559 COR
MTRCQC
METAR KCQC 211553Z AUTO 09017KT 10SM FEW011 SCT017 BKN039 17/13
A3042 RMK AO2 SLP217 T01720128





000
SAUS45 KABQ 211556 COR
MTRCQC
METAR KCQC 211553Z AUTO 09017KT 10SM FEW011 SCT017 BKN039 17/13
A3042 RMK AO2 SLP217 T01720128





000
SAUS45 KABQ 211555 COR
MTRCQC
METAR KCQC 211553Z AUTO 09017KT 10SM FEW011 SCT017 BKN039 17/13
A3042 RMK AO2 SLP217 T01720128





000
SAUS45 KABQ 211554
MTRTCS
METAR KTCS 211553Z AUTO 01012KT 10SM FEW047 23/17 A3024 RMK AO2
SLP160 T02280167 TSNO





000
SAUS45 KABQ 211554
MTRCQC
METAR KCQC 211553Z AUTO 09017KT 10SM FEW011 SCT017 BKN039 17/13
A3042 RMK AO2 SLP217 T01720128





000
SAUS45 KABQ 211552
MTRABQ
METAR KABQ 211552Z 10016G26KT 10SM FEW035 SCT050 SCT150 BKN300 23/12
A3032 RMK AO2 PK WND 10026/1530 SLP185 MTN TOPS OBSC NE-SE T02280122





000
SAUS45 KABQ 211535
MTRCQC
SPECI KCQC 211534Z AUTO 09011G21KT 10SM FEW011 SCT017 BKN041 17/13
A3041 RMK AO2 T01720128





000
SAUS45 KABQ 211527
MTRCQC
SPECI KCQC 211526Z AUTO 09012G20KT 10SM SCT011 BKN019 BKN041 17/13
A3041 RMK AO2 T01720128





000
SAUS45 KABQ 211514
MTRCQC
SPECI KCQC 211513Z AUTO 08013KT 10SM BKN011 BKN026 BKN031 17/13
A3041 RMK AO2 T01720133





000
SAUS45 KABQ 211459 COR
MTRCQC
METAR KCQC 211453Z AUTO 09014G21KT 10SM SCT007 BKN026 OVC033 16/13
A3041 RMK AO2 SLP216 T01610128 53006





000
SAUS45 KABQ 211456 COR
MTRCQC
METAR KCQC 211453Z AUTO 09014G21KT 10SM SCT007 BKN026 OVC033 16/13
A3041 RMK AO2 SLP216 T01610128 53006





000
SAUS45 KABQ 211455 COR
MTRCQC
METAR KCQC 211453Z AUTO 09014G21KT 10SM SCT007 BKN026 OVC033 16/13
A3041 RMK AO2 SLP216 T01610128 53006





000
SAUS45 KABQ 211454
MTRCQC
METAR KCQC 211453Z AUTO 09014G21KT 10SM SCT007 BKN026 OVC033 16/13
A3041 RMK AO2 SLP216 T01610128 53006





000
SAUS45 KABQ 211454
MTRTCS
METAR KTCS 211453Z AUTO 03012G18KT 10SM SCT043 SCT060 BKN090 22/17
A3024 RMK AO2 SLP159 T02170167 53014 TSNO





000
SAUS45 KABQ 211452
MTRABQ
METAR KABQ 211452Z 09018KT 10SM FEW035 FEW050 SCT090 SCT250 21/13
A3031 RMK AO2 SLP184 MTN TOPS OBSC NE-SE T02110128 51014





000
SAUS45 KABQ 211451
MTRCQC
SPECI KCQC 211449Z AUTO 10013G21KT 10SM SCT007 BKN017 OVC031 16/13
A3041 RMK AO2





000
SAUS45 KABQ 211354
MTRTCS
METAR KTCS 211353Z AUTO 36009KT 10SM OVC100 20/17 A3023 RMK AO2
SLP156 T02000167 TSNO





000
SAUS45 KABQ 211354
MTRCQC
METAR KCQC 211353Z AUTO 09011KT 10SM BKN005 OVC017 15/13 A3040 RMK
AO2 SLP210 T01500133





000
SAUS45 KABQ 211352
MTRABQ
METAR KABQ 211352Z 09014KT 10SM FEW035 FEW050 SCT080 SCT250 20/13
A3030 RMK AO2 SLP180 TCU DSNT W ACC DSNT SW MTN TOPS OBSC NE-SE
T02000128





000
SAUS45 KABQ 211341
MTRCQC
SPECI KCQC 211340Z AUTO 10011KT 10SM BKN005 14/13 A3040 RMK AO2
T01440128





000
SAUS45 KABQ 211332
MTRCQC
SPECI KCQC 211331Z AUTO 09009KT 10SM SCT005 14/13 A3040 RMK AO2
T01440128





000
SAUS45 KABQ 211311
MTRCQC
SPECI KCQC 211310Z AUTO 10010KT 10SM SCT005 BKN022 BKN030 14/13
A3039 RMK AO2 T01390128





000
SAUS45 KABQ 211254
MTRTCS
METAR KTCS 211253Z AUTO 36004KT 10SM CLR 18/17 A3020 RMK AO2 SLP148
T01830167 TSNO





000
SAUS45 KABQ 211254
MTRCQC
METAR KCQC 211253Z AUTO 11009KT 10SM BKN005 14/13 A3039 RMK AO2 CIG
003V011 SLP203 T01390128





000
SAUS45 KABQ 211252
MTRABQ
METAR KABQ 211252Z 11014KT 10SM FEW035 FEW050 SCT200 19/13 A3029 RMK
AO2 SLP172 MTN TOPS OBSC NE-SE T01940128





000
SAUS45 KABQ 211250
MTRCQC
SPECI KCQC 211249Z AUTO 11008KT 10SM BKN005 BKN026 14/13 A3039 RMK
AO2 CIG 003V008





000
SAUS45 KABQ 211242
MTRCQC
SPECI KCQC 211241Z AUTO 10009KT 10SM SCT005 BKN010 BKN032 14/13
A3038 RMK AO2 T01390128





000
SAUS45 KABQ 211217 COR
MTRCQC
SPECI KCQC 211212Z AUTO 10012KT 10SM BKN006 OVC012 15/13 A3037 RMK
AO2 CIG 003V010 T01500133





000
SAUS45 KABQ 211215 COR
MTRCQC
SPECI KCQC 211212Z AUTO 10012KT 10SM BKN006 OVC012 15/13 A3037 RMK
AO2 CIG 003V010 T01500133





000
SAUS45 KABQ 211214 COR
MTRCQC
SPECI KCQC 211212Z AUTO 10012KT 10SM BKN006 OVC012 15/13 A3037 RMK
AO2 CIG 003V010 T01500133





000
SAUS45 KABQ 211213
MTRCQC
SPECI KCQC 211212Z AUTO 10012KT 10SM BKN006 OVC012 15/13 A3037 RMK
AO2 CIG 003V010 T01500133





000
SAUS45 KABQ 211158 COR
MTRCQC
METAR KCQC 211153Z AUTO 09010KT 10SM BKN004 OVC026 15/13 A3037 RMK
AO2 CIG 003V008 SLP189 T01500133 10156 20150 53006





000
SAUS45 KABQ 211156 COR
MTRCQC
METAR KCQC 211153Z AUTO 09010KT 10SM BKN004 OVC026 15/13 A3037 RMK
AO2 CIG 003V008 SLP189 T01500133 10156 20150 53006





000
SAUS45 KABQ 211155 COR
MTRCQC
METAR KCQC 211153Z AUTO 09010KT 10SM BKN004 OVC026 15/13 A3037 RMK
AO2 CIG 003V008 SLP189 T01500133 10156 20150 53006





000
SAUS45 KABQ 211154
MTRTCS
METAR KTCS 211153Z AUTO 29006KT 10SM SCT037 19/17 A3019 RMK AO2
SLP139 60026 70026 T01890172 10228 20183 53009 TSNO





000
SAUS45 KABQ 211154
MTRCQC
METAR KCQC 211153Z AUTO 09010KT 10SM BKN004 OVC026 15/13 A3037 RMK
AO2 CIG 003V008 SLP189 T01500133 10156 20150 53006





000
SAUS45 KABQ 211153
MTRABQ
METAR KABQ 211152Z 12011KT 10SM FEW035 FEW220 19/13 A3026 RMK AO2
SLP160 MTNS OBSC E T01890133 10233 20189 53008





000
SAUS45 KABQ 211132
MTRCQC
SPECI KCQC 211131Z AUTO 09009KT 10SM BKN004 OVC010 15/13 A3036 RMK
AO2 T01500133





000
SAUS45 KABQ 211059 COR
MTRCQC
METAR KCQC 211053Z AUTO 08010KT 10SM BKN006 OVC010 15/14 A3035 RMK
AO2 CIG 004V007 SLP180 T01500139





000
SAUS45 KABQ 211056 COR
MTRCQC
METAR KCQC 211053Z AUTO 08010KT 10SM BKN006 OVC010 15/14 A3035 RMK
AO2 CIG 004V007 SLP180 T01500139





000
SAUS45 KABQ 211055
MTRCQC
METAR KCQC 211053Z AUTO 08010KT 10SM BKN006 OVC010 15/14 A3035 RMK
AO2 CIG 004V007 SLP180 T01500139





000
SAUS45 KABQ 211055 COR
MTRCQC
METAR KCQC 211053Z AUTO 08010KT 10SM BKN006 OVC010 15/14 A3035 RMK
AO2 CIG 004V007 SLP180 T01500139





000
SAUS45 KABQ 211054
MTRTCS
METAR KTCS 211053Z AUTO 31009KT 10SM BKN050 18/17 A3018 RMK AO2
SLP135 T01830167 TSNO





000
SAUS45 KABQ 211053
MTRABQ
METAR KABQ 211052Z 12013KT 10SM FEW037 FEW220 19/13 A3025 RMK AO2
SLP154 MTN TOPS OBSC NE-SE T01940133





000
SAUS45 KABQ 211037
MTRCQC
SPECI KCQC 211036Z AUTO 10011KT 10SM SCT005 BKN009 BKN017 15/14
A3035 RMK AO2 CIG 008V012 T01500139





000
SAUS45 KABQ 210954
MTRTCS
METAR KTCS 210953Z AUTO 32008KT 10SM SCT050 BKN060 OVC090 19/17
A3017 RMK AO2 RAE53 SLP130 P0001 T01890172 TSNO





000
SAUS45 KABQ 210954
MTRCQC
METAR KCQC 210953Z AUTO 11009KT 10SM SCT005 BKN017 BKN025 15/14
A3035 RMK AO2 SLP177 T01500139





000
SAUS45 KABQ 210953
MTRABQ
METAR KABQ 210952Z 09010KT 10SM FEW040 FEW220 20/14 A3024 RMK AO2
SLP147 MTN TOPS OBSC E-SE T02000139





000
SAUS45 KABQ 210946
MTRCQC
SPECI KCQC 210945Z AUTO 10007KT 10SM SCT005 BKN017 OVC037 15/14
A3035 RMK AO2 T01500139





000
SAUS45 KABQ 210928 COR
MTRCQC
SPECI KCQC 210923Z AUTO 11010KT 10SM BKN005 BKN012 OVC018 15/14
A3034 RMK AO2 CIG 003V008 T01500139





000
SAUS45 KABQ 210926 COR
MTRCQC
SPECI KCQC 210923Z AUTO 11010KT 10SM BKN005 BKN012 OVC018 15/14
A3034 RMK AO2 CIG 003V008 T01500139





000
SAUS45 KABQ 210925 COR
MTRCQC
SPECI KCQC 210923Z AUTO 11010KT 10SM BKN005 BKN012 OVC018 15/14
A3034 RMK AO2 CIG 003V008 T01500139





000
SAUS45 KABQ 210924
MTRCQC
SPECI KCQC 210923Z AUTO 11010KT 10SM BKN005 BKN012 OVC018 15/14
A3034 RMK AO2 CIG 003V008 T01500139





000
SAUS45 KABQ 210911 COR
MTRCQC
SPECI KCQC 210906Z AUTO 11010KT 10SM SCT004 BKN012 OVC017 16/14
A3034 RMK AO2 T01560139





000
SAUS45 KABQ 210909 COR
MTRCQC
SPECI KCQC 210906Z AUTO 11010KT 10SM SCT004 BKN012 OVC017 16/14
A3034 RMK AO2 T01560139





000
SAUS45 KABQ 210908 COR
MTRCQC
SPECI KCQC 210906Z AUTO 11010KT 10SM SCT004 BKN012 OVC017 16/14
A3034 RMK AO2 T01560139





000
SAUS45 KABQ 210907
MTRCQC
SPECI KCQC 210906Z AUTO 11010KT 10SM SCT004 BKN012 OVC017 16/14
A3034 RMK AO2 T01560139





000
SAUS45 KABQ 210903 COR
MTRCQC
METAR KCQC 210853Z AUTO 11011KT 10SM BKN003 OVC011 16/14 A3035 RMK
AO2 CIG 002V007 SLP171 T01560139 58003





000
SAUS45 KABQ 210902 COR
MTRCQC
METAR KCQC 210853Z AUTO 11011KT 10SM BKN003 OVC011 16/14 A3035 RMK
AO2 CIG 002V007 SLP171 T01560139 58003





000
SAUS45 KABQ 210901 COR
MTRCQC
METAR KCQC 210853Z AUTO 11011KT 10SM BKN003 OVC011 16/14 A3035 RMK
AO2 CIG 002V007 SLP171 T01560139 58003





000
SAUS45 KABQ 210859 COR
MTRCQC
METAR KCQC 210853Z AUTO 11011KT 10SM BKN003 OVC011 16/14 A3035 RMK
AO2 CIG 002V007 SLP171 T01560139 58003





000
SAUS45 KABQ 210858 COR
MTRCQC
METAR KCQC 210853Z AUTO 11011KT 10SM BKN003 OVC011 16/14 A3035 RMK
AO2 CIG 002V007 SLP171 T01560139 58003





000
SAUS45 KABQ 210856 COR
MTRCQC
METAR KCQC 210853Z AUTO 11011KT 10SM BKN003 OVC011 16/14 A3035 RMK
AO2 CIG 002V007 SLP171 T01560139 58003





000
SAUS45 KABQ 210855 COR
MTRCQC
METAR KCQC 210853Z AUTO 11011KT 10SM BKN003 OVC011 16/14 A3035 RMK
AO2 CIG 002V007 SLP171 T01560139 58003





000
SAUS45 KABQ 210854
MTRTCS
METAR KTCS 210853Z AUTO 33005KT 7SM -RA SCT065 BKN085 OVC100 19/18
A3016 RMK AO2 SLP130 P0021 60025 T01890183 50003 TSNO





000
SAUS45 KABQ 210854
MTRCQC
METAR KCQC 210853Z AUTO 11011KT 10SM BKN003 OVC011 16/14 A3035 RMK
AO2 CIG 002V007 SLP171 T01560139 58003





000
SAUS45 KABQ 210853
MTRABQ
METAR KABQ 210852Z 09009KT 10SM FEW040 SCT110 SCT220 21/14 A3023 RMK
AO2 SLP150 MTN TOPS OBSC E T02060139 50002





000
SAUS45 KABQ 210832
MTRTCS
SPECI KTCS 210831Z AUTO 30005KT 3SM RA BR FEW035 BKN050 OVC080 19/18
A3018 RMK AO2 P0015 T01890178 TSNO





000
SAUS45 KABQ 210816
MTRTCS
SPECI KTCS 210814Z AUTO 28007KT 2 1/2SM +RA BR BKN050 BKN070 OVC085
19/18 A3018 RMK AO2 P0007 T01940178 TSNO





000
SAUS45 KABQ 210814
MTRCQC
SPECI KCQC 210813Z AUTO 11008KT 10SM OVC003 16/14 A3035 RMK AO2
T01560139





000
SAUS45 KABQ 210759 COR
MTRCQC
METAR KCQC 210753Z AUTO 10009KT 10SM OVC006 16/14 A3035 RMK AO2 CIG
003V008 SLP174 T01560139





000
SAUS45 KABQ 210756 COR
MTRCQC
METAR KCQC 210753Z AUTO 10009KT 10SM OVC006 16/14 A3035 RMK AO2 CIG
003V008 SLP174 T01560139





000
SAUS45 KABQ 210755 COR
MTRCQC
METAR KCQC 210753Z AUTO 10009KT 10SM OVC006 16/14 A3035 RMK AO2 CIG
003V008 SLP174 T01560139





000
SAUS45 KABQ 210755
MTRTCS
METAR KTCS 210753Z AUTO 03004KT 5SM +RA BR BKN048 OVC080 19/17 A3017
RMK AO2 RAB25 SLP131 P0004 T01940172 TSNO





000
SAUS45 KABQ 210754
MTRCQC
METAR KCQC 210753Z AUTO 10009KT 10SM OVC006 16/14 A3035 RMK AO2 CIG
003V008 SLP174 T01560139





000
SAUS45 KABQ 210753
MTRABQ
METAR KABQ 210752Z 12006KT 10SM FEW060 SCT110 BKN220 21/13 A3024 RMK
AO2 SLP152 T02110133





000
SAUS45 KABQ 210717
MTRCQC
SPECI KCQC 210716Z AUTO 11011G19KT 10SM BKN006 OVC013 16/13 A3036
RMK AO2 T01560133





000
SAUS45 KABQ 210706
MTRCQC
SPECI KCQC 210705Z AUTO 10010KT 10SM SCT008 BKN013 BKN020 16/13
A3036 RMK AO2 T01560133





000
SAUS45 KABQ 210654
MTRTCS
METAR KTCS 210653Z AUTO 01004KT 10SM SCT060 22/16 A3016 RMK AO2
SLP126 T02170156 403060172 TSNO





000
SAUS45 KABQ 210654
MTRCQC
METAR KCQC 210653Z AUTO 10009KT 10SM BKN013 BKN019 16/13 A3036 RMK
AO2 SLP178 T01560128 402670100





000
SAUS45 KABQ 210652
MTRABQ
METAR KABQ 210652Z 12008KT 10SM FEW070 SCT130 BKN240 22/13 A3024 RMK
AO2 SLP150 T02220128 403280172





000
SAUS45 KABQ 210626
MTRCQC
SPECI KCQC 210625Z AUTO 09008KT 10SM BKN013 OVC030 16/13 A3036 RMK
AO2 T01560128





000
SAUS45 KABQ 210554
MTRTCS
METAR KTCS 210553Z AUTO 03004KT 10SM SCT070 SCT090 23/16 A3015 RMK
AO2 SLP123 T02280161 10300 20222 51012 TSNO





000
SAUS45 KABQ 210554
MTRCQC
METAR KCQC 210553Z AUTO 10007KT 10SM OVC031 16/13 A3036 RMK AO2
SLP178 T01560128 10228 20144 51013





000
SAUS45 KABQ 210552
MTRABQ
METAR KABQ 210552Z 10007KT 10SM BKN270 23/12 A3023 RMK AO2 SLP150
T02280117 10306 20228 51018





000
SAUS45 KABQ 210455
MTRCQC
METAR KCQC 210453Z AUTO 12007KT 10SM CLR 14/12 A3035 RMK AO2 SLP180
T01440117





000
SAUS45 KABQ 210454
MTRTCS
METAR KTCS 210453Z AUTO 00000KT 10SM SCT070 OVC100 23/17 A3014 RMK
AO2 SLP121 T02330167 TSNO





000
SAUS45 KABQ 210452
MTRABQ
METAR KABQ 210452Z 12004KT 10SM BKN270 23/11 A3021 RMK AO2 SLP149
T02280111





000
SAUS45 KABQ 210354
MTRCQC
METAR KCQC 210353Z AUTO 12008KT 10SM CLR 16/11 A3034 RMK AO2 SLP189
T01560106





000
SAUS45 KABQ 210354
MTRTCS
METAR KTCS 210353Z AUTO 00000KT 10SM BKN070 BKN100 BKN120 24/14
A3013 RMK AO2 SLP120 T02390139 TSNO





000
SAUS45 KABQ 210353
MTRABQ
METAR KABQ 210352Z 14007KT 10SM SCT270 24/11 A3020 RMK AO2 SLP146
T02390111





000
SAUS45 KABQ 210254
MTRCQC
METAR KCQC 210253Z AUTO 10008KT 10SM CLR 17/11 A3031 RMK AO2 SLP188
T01670111 53016





000
SAUS45 KABQ 210254
MTRTCS
METAR KTCS 210253Z AUTO 14006KT 10SM SCT070 BKN090 24/15 A3011 RMK
AO2 SLP115 T02440150 53020 TSNO





000
SAUS45 KABQ 210253
MTRABQ
METAR KABQ 210252Z 11013KT 10SM FEW200 SCT300 25/11 A3016 RMK AO2
SLP136 T02500106 53021





000
SAUS45 KABQ 210155
MTRTCS
METAR KTCS 210153Z AUTO 14007KT 10SM FEW065 26/14 A3007 RMK AO2
SLP105 T02560144 TSNO





000
SAUS45 KABQ 210154
MTRCQC
METAR KCQC 210153Z AUTO 11010KT 10SM CLR 19/11 A3028 RMK AO2 SLP174
T01890111





000
SAUS45 KABQ 210153
MTRABQ
METAR KABQ 210152Z 13011KT 10SM FEW100 SCT200 BKN300 26/09 A3013 RMK
AO2 SLP125 T02610094





000
SAUS45 KABQ 210055
MTRTCS
METAR KTCS 210053Z AUTO 04005KT 10SM CLR 27/14 A3005 RMK AO2 SLP099
T02720144 TSNO





000
SAUS45 KABQ 210055
MTRCQC
METAR KCQC 210053Z AUTO 11015KT 10SM CLR 21/10 A3026 RMK AO2 SLP166
T02110100





000
SAUS45 KABQ 210053
MTRABQ
METAR KABQ 210052Z 13016G23KT 10SM FEW100 FEW200 BKN300 28/07 A3011
RMK AO2 PK WND 14026/2354 SLP115 T02780072





000
SAUS45 KABQ 202359 COR
MTRCQC
METAR KCQC 202353Z AUTO 11017G25KT 10SM CLR 23/09 A3025 RMK AO2 PK
WND 12026/2259 SLP156 T02280094 10267 20228 53002





000
SAUS45 KABQ 202358 COR
MTRCQC
METAR KCQC 202353Z AUTO 11017G25KT 10SM CLR 23/09 A3025 RMK AO2 PK
WND 12026/2259 SLP156 T02280094 10267 20228 53002





000
SAUS45 KABQ 202356 COR
MTRCQC
METAR KCQC 202353Z AUTO 11017G25KT 10SM CLR 23/09 A3025 RMK AO2 PK
WND 12026/2259 SLP156 T02280094 10267 20228 53002





000
SAUS45 KABQ 202355 COR
MTRCQC
METAR KCQC 202353Z AUTO 11017G25KT 10SM CLR 23/09 A3025 RMK AO2 PK
WND 12026/2259 SLP156 T02280094 10267 20228 53002





000
SAUS45 KABQ 202355
MTRTCS
METAR KTCS 202353Z AUTO 06009KT 10SM CLR 29/13 A3004 RMK AO2 SLP089
T02940133 10306 20256 56010 TSNO





000
SAUS45 KABQ 202354
MTRCQC
METAR KCQC 202353Z AUTO 11017G25KT 10SM CLR 23/09 A3025 RMK AO2 PK
WND 12026/2259 SLP156 T02280094 10267 20228 53002





000
SAUS45 KABQ 202353
MTRABQ
METAR KABQ 202352Z 13018G24KT 10SM FEW100 FEW300 31/07 A3009 RMK AO2
SLP102 T03060072 10328 20256 55004





000
SAUS45 KABQ 202259 COR
MTRCQC
METAR KCQC 202253Z AUTO 11015G22KT 10SM CLR 24/09 A3024 RMK AO2 PK
WND 10027/2157 SLP151 T02440089





000
SAUS45 KABQ 202256 COR
MTRCQC
METAR KCQC 202253Z AUTO 11015G22KT 10SM CLR 24/09 A3024 RMK AO2 PK
WND 10027/2157 SLP151 T02440089





000
SAUS45 KABQ 202255 COR
MTRCQC
METAR KCQC 202253Z AUTO 11015G22KT 10SM CLR 24/09 A3024 RMK AO2 PK
WND 10027/2157 SLP151 T02440089





000
SAUS45 KABQ 202255
MTRTCS
METAR KTCS 202253Z AUTO 09006KT 10SM CLR 29/13 A3005 RMK AO2 SLP093
T02890128 TSNO





000
SAUS45 KABQ 202254
MTRCQC
METAR KCQC 202253Z AUTO 11015G22KT 10SM CLR 24/09 A3024 RMK AO2 PK
WND 10027/2157 SLP151 T02440089





000
SAUS45 KABQ 202253
MTRABQ
METAR KABQ 202252Z 12020G25KT 10SM FEW100 SCT250 32/04 A3009 RMK AO2
PK WND 12029/2155 SLP097 CB DSNT N T03170044





000
SAUS45 KABQ 202155
MTRTCS
METAR KTCS 202153Z AUTO 10SM FEW060 30/14 A3005 RMK AO2 SLP090
T03000139 TSNO





000
SAUS45 KABQ 202154
MTRCQC
METAR KCQC 202153Z AUTO 09015G21KT 10SM SCT055 25/09 A3024 RMK AO2
SLP149 T02500094





000
SAUS45 KABQ 202153
MTRABQ
METAR KABQ 202152Z 13018G22KT 10SM SCT070 SCT200 32/04 A3009 RMK AO2
SLP098 CB DSNT N T03220039





000
SAUS45 KABQ 202054
MTRCQC
METAR KCQC 202053Z AUTO 06018G24KT 10SM CLR 26/06 A3025 RMK AO2
SLP144 T02610061 58005





000
SAUS45 KABQ 202054
MTRTCS
METAR KTCS 202053Z AUTO 11004KT 10SM SCT050 29/16 A3007 RMK AO2
SLP100 T02890156 58016 TSNO





000
SAUS45 KABQ 202053
MTRABQ
METAR KABQ 202052Z 26009KT 10SM SCT060 SCT150 29/13 A3010 RMK AO2
SLP107 CB DSNT N AND W T02940128 58019





000
SAUS45 KABQ 201959 COR
MTRCQC
METAR KCQC 201953Z AUTO 10017G27KT 10SM CLR 26/08 A3026 RMK AO2 PK
WND 09027/1950 SLP146 T02610078





000
SAUS45 KABQ 201956 COR
MTRCQC
METAR KCQC 201953Z AUTO 10017G27KT 10SM CLR 26/08 A3026 RMK AO2 PK
WND 09027/1950 SLP146 T02610078





000
SAUS45 KABQ 201955 COR
MTRCQC
METAR KCQC 201953Z AUTO 10017G27KT 10SM CLR 26/08 A3026 RMK AO2 PK
WND 09027/1950 SLP146 T02610078





000
SAUS45 KABQ 201954
MTRTCS
METAR KTCS 201953Z AUTO 04006KT 10SM CLR 29/16 A3009 RMK AO2 SLP104
T02890156 TSNO





000
SAUS45 KABQ 201954
MTRCQC
METAR KCQC 201953Z AUTO 10017G27KT 10SM CLR 26/08 A3026 RMK AO2 PK
WND 09027/1950 SLP146 T02610078





000
SAUS45 KABQ 201953
MTRABQ
METAR KABQ 201952Z 18004KT 10SM FEW055 FEW180 28/12 A3013 RMK AO2
SLP117 CB DSNT SW T02830122





000
SAUS45 KABQ 201854
MTRCQC
METAR KCQC 201853Z AUTO 06016G24KT 10SM CLR 26/08 A3027 RMK AO2
SLP149 T02560078





000
SAUS45 KABQ 201854
MTRTCS
METAR KTCS 201853Z AUTO 00000KT 10SM CLR 27/16 A3012 RMK AO2 SLP117
T02670156 TSNO





000
SAUS45 KABQ 201852
MTRABQ
METAR KABQ 201852Z VRB03KT 10SM FEW050 28/13 A3015 RMK AO2 SLP124
T02830133





000
SAUS45 KABQ 201800 COR
MTRCQC
METAR KCQC 201753Z AUTO 07012G20KT 10SM CLR 25/08 A3027 RMK AO2
SLP151 T02500078 10256 20100 51002





000
SAUS45 KABQ 201756 COR
MTRCQC
METAR KCQC 201753Z AUTO 07012G20KT 10SM CLR 25/08 A3027 RMK AO2
SLP151 T02500078 10256 20100 51002





000
SAUS45 KABQ 201755 COR
MTRCQC
METAR KCQC 201753Z AUTO 07012G20KT 10SM CLR 25/08 A3027 RMK AO2
SLP151 T02500078 10256 20100 51002





000
SAUS45 KABQ 201754
MTRTCS
METAR KTCS 201753Z AUTO 10005KT 10SM CLR 26/17 A3013 RMK AO2 SLP120
T02560167 10256 20172 50004 TSNO





000
SAUS45 KABQ 201754
MTRCQC
METAR KCQC 201753Z AUTO 07012G20KT 10SM CLR 25/08 A3027 RMK AO2
SLP151 T02500078 10256 20100 51002





000
SAUS45 KABQ 201752
MTRABQ
METAR KABQ 201752Z 32007KT 290V360 10SM FEW050 26/14 A3017 RMK AO2
SLP134 T02560139 10256 20172 58003





000
SAUS45 KABQ 201655
MTRTCS
METAR KTCS 201653Z AUTO 09005KT 10SM CLR 24/17 A3014 RMK AO2 SLP125
T02440167 TSNO





000
SAUS45 KABQ 201654
MTRCQC
METAR KCQC 201653Z AUTO 06013G19KT 10SM CLR 24/11 A3026 RMK AO2
WSHFT 1636 SLP150 T02390106





000
SAUS45 KABQ 201652
MTRABQ
METAR KABQ 201652Z 34006KT 10SM FEW050 24/14 A3018 RMK AO2 SLP141
T02390139





000
SAUS45 KABQ 201554
MTRTCS
METAR KTCS 201553Z AUTO 01005KT 10SM CLR 23/16 A3013 RMK AO2 SLP124
T02280161 TSNO





000
SAUS45 KABQ 201554
MTRCQC
METAR KCQC 201553Z AUTO 33007KT 10SM CLR 18/14 A3026 RMK AO2 SLP166
T01780139





000
SAUS45 KABQ 201552
MTRABQ
METAR KABQ 201552Z 36008KT 10SM CLR 22/14 A3019 RMK AO2 SLP146
T02170139





000
SAUS45 KABQ 201536
MTRCQC
SPECI KCQC 201535Z AUTO 29009KT 10SM SCT002 15/14 A3026 RMK AO2
T01500139





000
SAUS45 KABQ 201524
MTRCQC
SPECI KCQC 201523Z AUTO 31008KT 3SM BR BKN002 14/14 A3026 RMK AO2
T01440139





000
SAUS45 KABQ 201522
MTRCQC
SPECI KCQC 201521Z AUTO 32008KT 1 1/4SM BR BKN002 14/13 A3026 RMK
AO2 T01440133





000
SAUS45 KABQ 201454
MTRCQC
METAR KCQC 201453Z AUTO 31007KT 1/4SM FG VV002 13/13 A3026 RMK AO2
SLP169 T01330128 51008





000
SAUS45 KABQ 201454
MTRTCS
METAR KTCS 201453Z AUTO 02006KT 10SM SCT120 21/17 A3011 RMK AO2
SLP120 T02110167 51012 TSNO





000
SAUS45 KABQ 201452
MTRABQ
METAR KABQ 201452Z 01007KT 10SM CLR 19/14 A3018 RMK AO2 SLP146
T01890139 51014





000
SAUS45 KABQ 201354
MTRCQC
METAR KCQC 201353Z AUTO 29007KT 1/4SM FG VV002 12/12 A3026 RMK AO2
SLP172 T01220117





000
SAUS45 KABQ 201354
MTRTCS
METAR KTCS 201353Z AUTO 35004KT 10SM CLR 19/16 A3011 RMK AO2 SLP119
T01890161 TSNO





000
SAUS45 KABQ 201352
MTRABQ
METAR KABQ 201352Z 35009KT 10SM CLR 18/13 A3017 RMK AO2 SLP143
T01780133





000
SAUS45 KABQ 201255
MTRCQC
METAR KCQC 201253Z AUTO 29005KT 1/4SM FG VV002 11/11 A3023 RMK AO2
SLP159 T01110106





000
SAUS45 KABQ 201254
MTRTCS
METAR KTCS 201253Z AUTO 35004KT 10SM CLR 17/16 A3009 RMK AO2 SLP113
T01720161 TSNO





000
SAUS45 KABQ 201252
MTRABQ
METAR KABQ 201252Z 36008KT 10SM CLR 17/13 A3015 RMK AO2 SLP134
T01720133





000
SAUS45 KABQ 201251
MTRCQC
SPECI KCQC 201250Z AUTO 28005KT 1/2SM FG VV001 11/10 A3023 RMK AO2





000
SAUS45 KABQ 201233
MTRCQC
SPECI KCQC 201232Z AUTO 26003KT 1/4SM FG VV001 12/11 A3022 RMK AO2
T01170111





000
SAUS45 KABQ 201154
MTRCQC
METAR KCQC 201153Z AUTO 18004KT 1/4SM FG VV002 11/11 A3022 RMK AO2
SLP154 T01110106 10144 20106 53004





000
SAUS45 KABQ 201154
MTRTCS
METAR KTCS 201153Z AUTO 36004KT 10SM CLR 17/16 A3007 RMK AO2 SLP104
T01720161 10206 20172 53005 TSNO





000
SAUS45 KABQ 201152
MTRABQ
METAR KABQ 201152Z 36005KT 10SM CLR 18/14 A3013 RMK AO2 SLP123
T01830139 10211 20183 53003





000
SAUS45 KABQ 201132
MTRCQC
SPECI KCQC 201131Z AUTO 15003KT 1/4SM FG VV002 11/10 A3022 RMK AO2
T01060100





000
SAUS45 KABQ 201109
MTRCQC
SPECI KCQC 201108Z AUTO 14003KT 1/4SM FG VV001 11/10 A3021 RMK AO2
T01060100





000
SAUS45 KABQ 201054
MTRCQC
METAR KCQC 201053Z AUTO 17004KT 3/4SM BR VV001 11/10 A3021 RMK AO2
SLP148 T01060100





000
SAUS45 KABQ 201054
MTRTCS
METAR KTCS 201053Z AUTO 35004KT 10SM CLR 18/16 A3007 RMK AO2 SLP101
T01780161 TSNO





000
SAUS45 KABQ 201052
MTRABQ
METAR KABQ 201052Z 35003KT 10SM CLR 19/14 A3012 RMK AO2 SLP117
T01890144





000
SAUS45 KABQ 201030
MTRCQC
SPECI KCQC 201028Z AUTO 17003KT 3/4SM BR VV001 11/11 A3020 RMK AO2
T01110106





000
SAUS45 KABQ 201005
MTRCQC
SPECI KCQC 201004Z AUTO 00000KT 3/4SM BR VV002 11/11 A3021 RMK AO2
T01110106





000
SAUS45 KABQ 200955
MTRCQC
METAR KCQC 200953Z AUTO 18004KT 1/4SM FG VV002 11/11 A3021 RMK AO2
SLP147 T01110106





000
SAUS45 KABQ 200954
MTRTCS
METAR KTCS 200953Z AUTO 31005KT 10SM CLR 18/16 A3007 RMK AO2 SLP099
T01830156 TSNO





000
SAUS45 KABQ 200952
MTRABQ
METAR KABQ 200952Z 33004KT 10SM CLR 19/14 A3012 RMK AO2 SLP116
T01890144





000
SAUS45 KABQ 200951
MTRCQC
SPECI KCQC 200950Z AUTO 00000KT 1/2SM FG VV002 11/11 A3021 RMK AO2





000
SAUS45 KABQ 200928
MTRCQC
SPECI KCQC 200927Z AUTO 00000KT 1/2SM FG VV001 11/11 A3021 RMK AO2
T01110106





000
SAUS45 KABQ 200922
MTRCQC
SPECI KCQC 200921Z AUTO 00000KT 1 3/4SM BR CLR 11/11 A3021 RMK AO2
T01110111





000
SAUS45 KABQ 200902
MTRCQC
SPECI KCQC 200901Z AUTO 00000KT 3SM BR FEW001 13/12 A3021 RMK AO2
T01280122





000
SAUS45 KABQ 200858
MTRCQC
SPECI KCQC 200857Z AUTO 00000KT 1 1/4SM BR SCT001 13/12 A3021 RMK
AO2 T01280117





000
SAUS45 KABQ 200855
MTRCQC
METAR KCQC 200853Z AUTO 00000KT 3/4SM BR VV002 12/12 A3021 RMK AO2
SLP142 T01220117 58000





000
SAUS45 KABQ 200854
MTRTCS
METAR KTCS 200853Z AUTO 31004KT 10SM CLR 18/16 A3006 RMK AO2 SLP098
T01830161 50001 TSNO





000
SAUS45 KABQ 200852
MTRABQ
METAR KABQ 200852Z 00000KT 10SM CLR 19/14 A3012 RMK AO2 SLP117
T01940139 50005





000
SAUS45 KABQ 200830
MTRCQC
SPECI KCQC 200829Z AUTO 32004KT 3/4SM BR VV001 13/12 A3021 RMK AO2
T01280122





000
SAUS45 KABQ 200822
MTRCQC
SPECI KCQC 200820Z AUTO 31003KT 1/4SM FG VV001 13/12 A3022 RMK AO2
T01280122





000
SAUS45 KABQ 200755
MTRCQC
METAR KCQC 200753Z AUTO 00000KT 1/4SM FG VV002 14/13 A3022 RMK AO2
SLP147 T01390133





000
SAUS45 KABQ 200755
MTRTCS
METAR KTCS 200753Z AUTO 33003KT 10SM CLR 19/16 A3006 RMK AO2 SLP100
T01940161 TSNO





000
SAUS45 KABQ 200752
MTRABQ
METAR KABQ 200752Z 27003KT 10SM FEW300 19/14 A3012 RMK AO2 SLP120
T01940139





000
SAUS45 KABQ 200751
MTRCQC
SPECI KCQC 200750Z AUTO 00000KT 1/4SM FG VV002 14/13 A3022 RMK AO2





000
SAUS45 KABQ 200654
MTRTCS
METAR KTCS 200653Z AUTO 33004KT 10SM CLR 19/17 A3005 RMK AO2 SLP099
T01940167 402830150 TSNO





000
SAUS45 KABQ 200654
MTRCQC
METAR KCQC 200653Z AUTO 17005KT 1/2SM FG VV002 14/14 A3021 RMK AO2
SLP148 T01440139 402220139





000
SAUS45 KABQ 200653
MTRABQ
METAR KABQ 200652Z 00000KT 10SM FEW190 21/13 A3011 RMK AO2 SLP115
T02060133 402780178





000
SAUS45 KABQ 200639
MTRCQC
SPECI KCQC 200638Z AUTO 17005KT 1/2SM FG VV002 14/14 A3021 RMK AO2
T01440139





000
SAUS45 KABQ 200554
MTRCQC
METAR KCQC 200553Z AUTO 15004KT 1/4SM FG VV002 14/13 A3021 RMK AO2
SLP148 T01390133 10194 20139 51003





000
SAUS45 KABQ 200554
MTRTCS
METAR KTCS 200553Z AUTO 00000KT 10SM CLR 21/18 A3006 RMK AO2 SLP097
T02060178 10278 20206 51009 TSNO





000
SAUS45 KABQ 200553
MTRABQ
METAR KABQ 200552Z 23004KT 10SM CLR 21/13 A3010 RMK AO2 SLP113
T02060133 10272 20206 51012





000
SAUS45 KABQ 200537
MTRCQC
SPECI KCQC 200535Z AUTO 16004KT 1/4SM FG VV002 14/14 A3021 RMK AO2
T01440139





000
SAUS45 KABQ 200529
MTRCQC
SPECI KCQC 200528Z AUTO 16006KT 1/2SM FG VV002 14/14 A3021 RMK AO2
T01440139





000
SAUS45 KABQ 200522
MTRCQC
SPECI KCQC 200520Z AUTO 18007KT 1 3/4SM BR OVC002 14/14 A3021 RMK
AO2 T01440139





000
SAUS45 KABQ 200455
MTRCQC
METAR KCQC 200453Z AUTO 15005KT 10SM BKN003 14/13 A3021 RMK AO2
SLP148 T01440133





000
SAUS45 KABQ 200454
MTRTCS
METAR KTCS 200453Z AUTO 07003KT 10SM CLR 21/18 A3005 RMK AO2 SLP099
T02110178 TSNO





000
SAUS45 KABQ 200453
MTRABQ
METAR KABQ 200452Z 10007KT 10SM CLR 21/13 A3009 RMK AO2 SLP112
T02110133





000
SAUS45 KABQ 200451
MTRCQC
SPECI KCQC 200450Z AUTO 15004KT 10SM BKN003 14/13 A3021 RMK AO2





000
SAUS45 KABQ 200447 COR
MTRCQC
SPECI KCQC 200442Z AUTO 13004KT 10SM SCT003 14/13 A3021 RMK AO2
T01390128





000
SAUS45 KABQ 200445 COR
MTRCQC
SPECI KCQC 200442Z AUTO 13004KT 10SM SCT003 14/13 A3021 RMK AO2
T01390128





000
SAUS45 KABQ 200444 COR
MTRCQC
SPECI KCQC 200442Z AUTO 13004KT 10SM SCT003 14/13 A3021 RMK AO2
T01390128





000
SAUS45 KABQ 200443
MTRCQC
SPECI KCQC 200442Z AUTO 13004KT 10SM SCT003 14/13 A3021 RMK AO2
T01390128





000
SAUS45 KABQ 200354
MTRTCS
METAR KTCS 200353Z AUTO 00000KT 10SM CLR 23/17 A3003 RMK AO2 SLP092
T02280167 TSNO





000
SAUS45 KABQ 200354
MTRCQC
METAR KCQC 200353Z AUTO 11005KT 10SM CLR 14/13 A3020 RMK AO2 SLP147
T01440133





000
SAUS45 KABQ 200353
MTRABQ
METAR KABQ 200352Z 12004KT 10SM SCT140 22/13 A3008 RMK AO2 SLP107
T02170133





000
SAUS45 KABQ 200255
MTRTCS
METAR KTCS 200253Z AUTO 10003KT 10SM CLR 23/18 A3003 RMK AO2 SLP091
T02280178 53014 TSNO





000
SAUS45 KABQ 200254
MTRCQC
METAR KCQC 200253Z AUTO 14008KT 10SM BKN110 16/13 A3019 RMK AO2
SLP144 T01610133 53012





000
SAUS45 KABQ 200253
MTRABQ
METAR KABQ 200252Z 15006KT 10SM FEW065 SCT110 23/14 A3006 RMK AO2
SLP101 T02280139 53013





000
SAUS45 KABQ 200155
MTRCQC
METAR KCQC 200153Z AUTO 16007KT 10SM OVC120 17/13 A3017 RMK AO2
SLP134 T01670133





000
SAUS45 KABQ 200154
MTRTCS
METAR KTCS 200153Z AUTO 14003KT 10SM CLR 24/17 A3001 RMK AO2 SLP089
T02390172 TSNO





000
SAUS45 KABQ 200153
MTRABQ
METAR KABQ 200152Z 19010KT 10SM FEW065 SCT110 24/13 A3003 RMK AO2
SLP093 T02440133





000
SAUS45 KABQ 200055
MTRCQC
METAR KCQC 200053Z AUTO 16008KT 10SM OVC110 18/13 A3016 RMK AO2
SLP128 T01830133





000
SAUS45 KABQ 200054
MTRTCS
METAR KTCS 200053Z AUTO 04004KT 10SM CLR 26/14 A2999 RMK AO2 SLP080
T02610144 TSNO





000
SAUS45 KABQ 200053
MTRABQ
METAR KABQ 200052Z 21010KT 10SM FEW065 FEW110 26/13 A3003 RMK AO2
SLP088 T02610128





000
SAUS45 KABQ 192359 COR
MTRCQC
METAR KCQC 192353Z AUTO 16009KT 10SM OVC095 19/13 A3015 RMK AO2
SLP123 T01940133 10222 20178 55001





000
SAUS45 KABQ 192356 COR
MTRCQC
METAR KCQC 192353Z AUTO 16009KT 10SM OVC095 19/13 A3015 RMK AO2
SLP123 T01940133 10222 20178 55001





000
SAUS45 KABQ 192355 COR
MTRCQC
METAR KCQC 192353Z AUTO 16009KT 10SM OVC095 19/13 A3015 RMK AO2
SLP123 T01940133 10222 20178 55001





000
SAUS45 KABQ 192354
MTRTCS
METAR KTCS 192353Z AUTO VRB04KT 10SM CLR 28/14 A2998 RMK AO2 SLP073
T02780144 10283 20239 56006 TSNO





000
SAUS45 KABQ 192354
MTRCQC
METAR KCQC 192353Z AUTO 16009KT 10SM OVC095 19/13 A3015 RMK AO2
SLP123 T01940133 10222 20178 55001





000
SAUS45 KABQ 192353
MTRABQ
METAR KABQ 192352Z 15006KT 10SM FEW065 FEW110 27/12 A3002 RMK AO2
SLP082 T02720117 10278 20244 56005





000
SAUS45 KABQ 192254
MTRTCS
METAR KTCS 192253Z AUTO 05004KT 10SM CLR 27/14 A2998 RMK AO2 SLP073
T02720139 TSNO





000
SAUS45 KABQ 192254
MTRCQC
METAR KCQC 192253Z AUTO 19007KT 10SM BKN100 OVC110 21/13 A3014 RMK
AO2 SLP116 T02060128





000
SAUS45 KABQ 192252
MTRABQ
METAR KABQ 192252Z VRB03KT 10SM SCT065 SCT110 27/12 A3002 RMK AO2
SLP081 T02720117





000
SAUS45 KABQ 192154
MTRCQC
METAR KCQC 192153Z AUTO 16009KT 10SM SCT037 OVC100 21/13 A3014 RMK
AO2 SLP114 T02060128





000
SAUS45 KABQ 192154
MTRTCS
METAR KTCS 192153Z AUTO 05006KT 10SM CLR 28/14 A2999 RMK AO2 SLP072
T02780144 TSNO





000
SAUS45 KABQ 192152
MTRABQ
METAR KABQ 192152Z VRB05KT 10SM SCT065 SCT110 27/12 A3002 RMK AO2
SLP082 T02720122





000
SAUS45 KABQ 192059 COR
MTRCQC
METAR KCQC 192053Z AUTO 16012KT 10SM SCT022 BKN031 OVC100 22/13
A3015 RMK AO2 SLP117 T02170133 58013





000
SAUS45 KABQ 192056 COR
MTRCQC
METAR KCQC 192053Z AUTO 16012KT 10SM SCT022 BKN031 OVC100 22/13
A3015 RMK AO2 SLP117 T02170133 58013





000
SAUS45 KABQ 192055 COR
MTRCQC
METAR KCQC 192053Z AUTO 16012KT 10SM SCT022 BKN031 OVC100 22/13
A3015 RMK AO2 SLP117 T02170133 58013





000
SAUS45 KABQ 192054
MTRTCS
METAR KTCS 192053Z AUTO 02007KT 10SM SCT050 27/14 A3000 RMK AO2
SLP081 T02670144 58014 TSNO





000
SAUS45 KABQ 192054
MTRCQC
METAR KCQC 192053Z AUTO 16012KT 10SM SCT022 BKN031 OVC100 22/13
A3015 RMK AO2 SLP117 T02170133 58013





000
SAUS45 KABQ 192052
MTRABQ
METAR KABQ 192052Z 18007KT 140V220 10SM SCT065 SCT110 27/12 A3003
RMK AO2 SLP087 VCSH SE T02670122 56018





000
SAUS45 KABQ 191955
MTRCQC
METAR KCQC 191953Z AUTO 15010KT 10SM SCT013 OVC090 19/13 A3017 RMK
AO2 SLP128 T01940133





000
SAUS45 KABQ 191954
MTRTCS
METAR KTCS 191953Z AUTO VRB05KT 10SM SCT045 BKN065 26/14 A3002 RMK
AO2 SLP088 T02610144 TSNO





000
SAUS45 KABQ 191952
MTRABQ
METAR KABQ 191952Z 22004KT 10SM SCT060 BKN120 26/12 A3005 RMK AO2
SLP095 TCU DSNT NE VCSH SE T02560122





000
SAUS45 KABQ 191947
MTRCQC
SPECI KCQC 191946Z AUTO 15008KT 10SM FEW009 BKN013 OVC090 20/13
A3018 RMK AO2 T02000133





000
SAUS45 KABQ 191854
MTRCQC
METAR KCQC 191853Z AUTO 13012KT 10SM FEW009 SCT018 OVC049 18/13
A3019 RMK AO2 SLP140 T01780133





000
SAUS45 KABQ 191854
MTRTCS
METAR KTCS 191853Z AUTO VRB05KT 10SM FEW039 SCT050 25/16 A3004 RMK
AO2 SLP096 T02500156 TSNO





000
SAUS45 KABQ 191852
MTRABQ
METAR KABQ 191852Z 13005KT 10SM SCT050 SCT100 26/12 A3007 RMK AO2
SLP102 T02560117





000
SAUS45 KABQ 191829
MTRCQC
SPECI KCQC 191828Z AUTO 14007KT 110V180 10SM SCT018 BKN024 OVC050
18/13 A3019 RMK AO2 T01830128





000
SAUS45 KABQ 191754
MTRTCS
METAR KTCS 191753Z AUTO 02008G15KT 10SM SCT034 25/16 A3005 RMK AO2
SLP099 T02500156 10250 20150 58003 TSNO





000
SAUS45 KABQ 191754
MTRCQC
METAR KCQC 191753Z AUTO 11007KT 10SM SCT017 SCT022 OVC030 18/13
A3020 RMK AO2 SLP143 T01830128 10183 20139





000
SAUS45 KABQ 191752
MTRABQ
METAR KABQ 191752Z 00000KT 10SM SCT040 SCT100 24/13 A3010 RMK AO2
SLP113 MTNS OBSC NE T02440128 10244 20178 58004





000
SAUS45 KABQ 191744
MTRCQC
SPECI KCQC 191743Z AUTO 13008KT 10SM FEW017 SCT024 OVC031 18/13
A3020 RMK AO2 T01830128





000
SAUS45 KABQ 191655
MTRTCS
METAR KTCS 191653Z AUTO 03009KT 10SM CLR 23/16 A3006 RMK AO2 SLP106
T02330156 TSNO





000
SAUS45 KABQ 191654
MTRCQC
METAR KCQC 191653Z AUTO 09005KT 10SM SCT016 BKN024 OVC040 17/12
A3021 RMK AO2 SLP146 T01720122





000
SAUS45 KABQ 191653
MTRABQ
METAR KABQ 191652Z 00000KT 10SM SCT037 BKN100 BKN120 23/13 A3011 RMK
AO2 SLP119 MTNS OBSC NE-SE T02330128





000
SAUS45 KABQ 191612
MTRCQC
SPECI KCQC 191611Z AUTO 12008KT 10SM SCT016 BKN022 OVC100 17/12
A3020 RMK AO2 T01720122 $





000
SAUS45 KABQ 191554
MTRTCS
METAR KTCS 191553Z AUTO 04007KT 10SM FEW024 22/16 A3006 RMK AO2
SLP108 T02170156 TSNO





000
SAUS45 KABQ 191554
MTRCQC
METAR KCQC 191553Z AUTO 12009KT 10SM SCT014 BKN055 OVC100 17/12
A3020 RMK AO2 SLP144 T01670122 $





000
SAUS45 KABQ 191552
MTRABQ
METAR KABQ 191552Z VRB04KT 10SM FEW033 SCT110 23/13 A3012 RMK AO2
SLP124 MTNS OBSC NE-SE T02280133





000
SAUS45 KABQ 191454
MTRCQC
METAR KCQC 191453Z AUTO VRB03KT 10SM SCT006 BKN043 OVC095 15/13
A3020 RMK AO2 SLP144 T01500128 53010





000
SAUS45 KABQ 191454
MTRTCS
METAR KTCS 191453Z AUTO 35004KT 10SM CLR 20/14 A3006 RMK AO2 SLP108
T02000139 53013 TSNO





000
SAUS45 KABQ 191452
MTRABQ
METAR KABQ 191452Z 18006KT 10SM FEW030 FEW050 BKN110 21/13 A3011 RMK
AO2 SLP121 MTNS OBSC NE-SE T02110133 53009





000
SAUS45 KABQ 191354
MTRTCS
METAR KTCS 191353Z AUTO 30006KT 10SM CLR 17/14 A3004 RMK AO2 SLP108
T01670139 TSNO





000
SAUS45 KABQ 191354
MTRCQC
METAR KCQC 191353Z AUTO 09005KT 10SM BKN007 OVC023 14/13 A3018 RMK
AO2 SLP136 T01440128





000
SAUS45 KABQ 191352
MTRABQ
METAR KABQ 191352Z 03003KT 10SM FEW030 BKN055 BKN120 18/13 A3010 RMK
AO2 SLP122 MTNS OBSC NE-SE T01830133





000
SAUS45 KABQ 191345
MTRCQC
SPECI KCQC 191344Z AUTO 10003KT 10SM BKN007 BKN013 OVC024 14/13
A3018 RMK AO2 T01390128





000
SAUS45 KABQ 191337
MTRCQC
SPECI KCQC 191336Z AUTO 11005KT 10SM SCT007 BKN013 OVC023 14/12
A3018 RMK AO2 T01390122





000
SAUS45 KABQ 191315
MTRCQC
SPECI KCQC 191314Z AUTO 10006KT 10SM SCT005 BKN015 OVC020 14/13
A3017 RMK AO2 T01390128





000
SAUS45 KABQ 191309 COR
MTRCQC
SPECI KCQC 191304Z AUTO 10004KT 10SM BKN005 BKN011 OVC021 14/13
A3017 RMK AO2 CIG 003V007 T01390128





000
SAUS45 KABQ 191307 COR
MTRCQC
SPECI KCQC 191304Z AUTO 10004KT 10SM BKN005 BKN011 OVC021 14/13
A3017 RMK AO2 CIG 003V007 T01390128





000
SAUS45 KABQ 191306 COR
MTRCQC
SPECI KCQC 191304Z AUTO 10004KT 10SM BKN005 BKN011 OVC021 14/13
A3017 RMK AO2 CIG 003V007 T01390128





000
SAUS45 KABQ 191305
MTRCQC
SPECI KCQC 191304Z AUTO 10004KT 10SM BKN005 BKN011 OVC021 14/13
A3017 RMK AO2 CIG 003V007 T01390128





000
SAUS45 KABQ 191254
MTRTCS
METAR KTCS 191253Z AUTO 31005KT 10SM FEW042 16/13 A3002 RMK AO2
SLP100 T01560133 TSNO





000
SAUS45 KABQ 191254
MTRCQC
METAR KCQC 191253Z AUTO 11006KT 10SM BKN003 OVC010 14/13 A3017 RMK
AO2 SLP130 T01390128





000
SAUS45 KABQ 191252
MTRABQ
METAR KABQ 191252Z 01005KT 10SM FEW030 SCT055 BKN120 18/13 A3008 RMK
AO2 SLP114 MTNS OBSC NE-SE T01780133





000
SAUS45 KABQ 191246
MTRCQC
SPECI KCQC 191244Z AUTO 10005KT 10SM OVC003 14/13 A3017 RMK AO2 CIG
003V007 T01390128





000
SAUS45 KABQ 191155
MTRCQC
METAR KCQC 191153Z AUTO 09003KT 10SM BKN005 OVC085 14/13 A3016 RMK
AO2 SLP124 T01390128 10144 20139 53002





000
SAUS45 KABQ 191154
MTRTCS
METAR KTCS 191153Z AUTO 34004KT 10SM SCT041 16/15 A3001 RMK AO2
SLP097 70002 T01610150 10178 20161 53001 TSNO





000
SAUS45 KABQ 191152
MTRABQ
METAR KABQ 191152Z 34006KT 10SM FEW030 BKN055 OVC120 18/14 A3008 RMK
AO2 SLP106 MTNS OBSC NE-SE T01830139 10200 20183 53003





000
SAUS45 KABQ 191137
MTRCQC
SPECI KCQC 191136Z AUTO 08004KT 10SM BKN005 OVC011 14/13 A3016 RMK
AO2 T01390128





000
SAUS45 KABQ 191109
MTRCQC
SPECI KCQC 191108Z AUTO 06005KT 10SM SCT005 OVC011 14/13 A3016 RMK
AO2 T01440128





000
SAUS45 KABQ 191055
MTRCQC
METAR KCQC 191053Z AUTO 07005KT 10SM BKN003 OVC009 14/13 A3015 RMK
AO2 SLP117 T01440128





000
SAUS45 KABQ 191054
MTRTCS
METAR KTCS 191053Z AUTO 32006KT 10SM OVC037 17/14 A3000 RMK AO2
SLP092 T01670144 TSNO





000
SAUS45 KABQ 191052
MTRABQ
METAR KABQ 191052Z 01006KT 10SM BKN045 OVC100 19/14 A3007 RMK AO2
SLP099 MTNS OBSC NE-SE T01890144





000
SAUS45 KABQ 191030
MTRCQC
SPECI KCQC 191029Z AUTO 08005KT 10SM OVC005 14/13 A3015 RMK AO2 CIG
003V009 T01440128





000
SAUS45 KABQ 190955
MTRCQC
METAR KCQC 190953Z AUTO 10006KT 10SM BKN004 BKN008 OVC013 14/13
A3015 RMK AO2 SLP112 T01440133





000
SAUS45 KABQ 190954
MTRTCS
METAR KTCS 190953Z AUTO 31004KT 10SM SCT014 OVC036 17/16 A3000 RMK
AO2 SLP093 T01720156 TSNO





000
SAUS45 KABQ 190952
MTRABQ
METAR KABQ 190952Z 36005KT 10SM FEW035 OVC100 19/14 A3007 RMK AO2
SLP099 MTNS OBSC NE-SE T01890144





000
SAUS45 KABQ 190937
MTRCQC
SPECI KCQC 190936Z AUTO 11006KT 10SM BKN004 OVC010 14/13 A3015 RMK
AO2 CIG 003V007 T01440133





000
SAUS45 KABQ 190928
MTRTCS
SPECI KTCS 190927Z AUTO 27003KT 10SM BKN014 OVC034 17/16 A3001 RMK
AO2 T01720161 TSNO





000
SAUS45 KABQ 190859 COR
MTRCQC
METAR KCQC 190853Z AUTO 11006KT 10SM FEW003 OVC011 14/13 A3015 RMK
AO2 CIG 007V014 SLP113 T01440133 56004





000
SAUS45 KABQ 190856 COR
MTRCQC
METAR KCQC 190853Z AUTO 11006KT 10SM FEW003 OVC011 14/13 A3015 RMK
AO2 CIG 007V014 SLP113 T01440133 56004





000
SAUS45 KABQ 190855 COR
MTRCQC
METAR KCQC 190853Z AUTO 11006KT 10SM FEW003 OVC011 14/13 A3015 RMK
AO2 CIG 007V014 SLP113 T01440133 56004





000
SAUS45 KABQ 190854
MTRTCS
METAR KTCS 190853Z AUTO 30003KT 10SM OVC035 17/16 A3001 RMK AO2
SLP097 T01720161 58004 TSNO





000
SAUS45 KABQ 190854
MTRCQC
METAR KCQC 190853Z AUTO 11006KT 10SM FEW003 OVC011 14/13 A3015 RMK
AO2 CIG 007V014 SLP113 T01440133 56004





000
SAUS45 KABQ 190852
MTRABQ
METAR KABQ 190852Z 34005KT 10SM FEW038 BKN100 BKN180 19/14 A3006 RMK
AO2 SLP098 MTNS OBSC NE-SE T01940144 57006





000
SAUS45 KABQ 190852
MTRCQC
SPECI KCQC 190851Z AUTO 11006KT 10SM SCT003 OVC011 14/13 A3015 RMK
AO2





000
SAUS45 KABQ 190818
MTRCQC
SPECI KCQC 190816Z AUTO 11007KT 10SM BKN003 OVC085 14/13 A3016 RMK
AO2 T01440128





000
SAUS45 KABQ 190755
MTRTCS
METAR KTCS 190753Z AUTO 31003KT 10SM FEW001 OVC038 17/17 A3001 RMK
AO2 SLP099 T01670167 TSNO





000
SAUS45 KABQ 190754
MTRCQC
METAR KCQC 190753Z AUTO 10006KT 10SM FEW003 FEW060 OVC085 14/13
A3016 RMK AO2 SLP115 T01440133





000
SAUS45 KABQ 190752
MTRABQ
METAR KABQ 190752Z 00000KT 10SM FEW038 BKN100 BKN180 20/14 A3007 RMK
AO2 SLP101 MTNS OBSC NE-SE T02000139





000
SAUS45 KABQ 190746
MTRTCS
SPECI KTCS 190745Z AUTO 00000KT 1SM BR SCT001 OVC038 17/17 A3001 RMK
AO2 T01670167 TSNO





000
SAUS45 KABQ 190701
MTRTCS
SPECI KTCS 190700Z AUTO 00000KT 1/4SM FG VV002 17/17 A3002 RMK AO2
T01720172 TSNO





000
SAUS45 KABQ 190655
MTRCQC
METAR KCQC 190653Z AUTO 10005KT 10SM SCT007 OVC050 14/13 A3017 RMK
AO2 SLP119 T01440128 402390117





000
SAUS45 KABQ 190654
MTRTCS
METAR KTCS 190653Z AUTO 00000KT 1SM BR VV002 17/17 A3002 RMK AO2 VIS
1/4V5 SLP101 T01720172 402110172 TSNO





000
SAUS45 KABQ 190653
MTRABQ
METAR KABQ 190652Z 00000KT 10SM FEW030 FEW045 SCT110 BKN190 19/14
A3008 RMK AO2 SLP108 MTNS OBSC NE-SE T01940144 402720144





000
SAUS45 KABQ 190652
MTRTCS
SPECI KTCS 190651Z AUTO 00000KT 2SM BR BKN001 17/17 A3002 RMK AO2
VIS 1/2V5 TSNO





000
SAUS45 KABQ 190647
MTRTCS
SPECI KTCS 190646Z AUTO 00000KT 7SM SCT001 17/17 A3002 RMK AO2
T01720167 TSNO





000
SAUS45 KABQ 190644
MTRCQC
SPECI KCQC 190643Z AUTO 11005KT 10SM SCT007 SCT022 BKN050 14/13
A3017 RMK AO2 T01440128





000
SAUS45 KABQ 190635
MTRCQC
SPECI KCQC 190634Z AUTO 12005KT 10SM SCT005 BKN010 BKN022 14/13
A3018 RMK AO2 T01440128





000
SAUS45 KABQ 190608
MTRCQC
SPECI KCQC 190607Z AUTO 13006KT 10SM BKN023 BKN049 14/13 A3018 RMK
AO2 T01390128





000
SAUS45 KABQ 190559 COR
MTRCQC
METAR KCQC 190553Z AUTO 13004KT 10SM FEW021 SCT049 BKN060 14/12
A3018 RMK AO2 SLP125 60000 T01390122 10206 20139 50003





000
SAUS45 KABQ 190556 COR
MTRCQC
METAR KCQC 190553Z AUTO 13004KT 10SM FEW021 SCT049 BKN060 14/12
A3018 RMK AO2 SLP125 60000 T01390122 10206 20139 50003





000
SAUS45 KABQ 190555 COR
MTRCQC
METAR KCQC 190553Z AUTO 13004KT 10SM FEW021 SCT049 BKN060 14/12
A3018 RMK AO2 SLP125 60000 T01390122 10206 20139 50003





000
SAUS45 KABQ 190554
MTRTCS
METAR KTCS 190553Z AUTO 20004KT 10SM CLR 18/17 A3002 RMK AO2 SLP099
T01780167 10211 20178 50005 TSNO





000
SAUS45 KABQ 190554
MTRCQC
METAR KCQC 190553Z AUTO 13004KT 10SM FEW021 SCT049 BKN060 14/12
A3018 RMK AO2 SLP125 60000 T01390122 10206 20139 50003





000
SAUS45 KABQ 190553
MTRABQ
METAR KABQ 190552Z 17003KT 10SM FEW030 FEW045 SCT110 BKN190 19/14
A3009 RMK AO2 SLP111 MTNS OBSC NE-SE T01940144 10256 20194 51009





000
SAUS45 KABQ 190455
MTRCQC
METAR KCQC 190453Z AUTO 13007KT 10SM FEW060 BKN075 14/12 A3018 RMK
AO2 SLP129 T01440122





000
SAUS45 KABQ 190454
MTRTCS
METAR KTCS 190453Z AUTO 17004KT 10SM CLR 18/17 A3002 RMK AO2 SLP098
T01830172 TSNO





000
SAUS45 KABQ 190453
MTRABQ
METAR KABQ 190452Z 17005KT 10SM SCT045 BKN110 BKN190 19/14 A3008 RMK
AO2 SLP115 MTNS OBSC NE-E T01940144





000
SAUS45 KABQ 190359 COR
MTRCQC
METAR KCQC 190353Z AUTO 13011KT 10SM BKN060 OVC070 16/12 A3018 RMK
AO2 RAE00 SLP128 P0000 T01560117





000
SAUS45 KABQ 190356 COR
MTRCQC
METAR KCQC 190353Z AUTO 13011KT 10SM BKN060 OVC070 16/12 A3018 RMK
AO2 RAE00 SLP128 P0000 T01560117





000
SAUS45 KABQ 190355
MTRCQC
METAR KCQC 190353Z AUTO 13011KT 10SM BKN060 OVC070 16/12 A3018 RMK
AO2 RAE00 SLP128 P0000 T01560117





000
SAUS45 KABQ 190354
MTRTCS
METAR KTCS 190353Z AUTO 16003KT 10SM CLR 19/17 A3002 RMK AO2 SLP096
T01890172 TSNO





000
SAUS45 KABQ 190353
MTRABQ
METAR KABQ 190352Z 16004KT 10SM SCT050 SCT120 BKN190 19/14 A3007 RMK
AO2 SLP116 MTNS OBSC NE-E T01940139





000
SAUS45 KABQ 190302 COR
MTRCQC
METAR KCQC 190253Z AUTO 14009KT 10SM -RA FEW039 OVC065 16/13 A3017
RMK AO2 RAB51 SLP132 P0000 60000 T01610133 53017





000
SAUS45 KABQ 190301 COR
MTRCQC
METAR KCQC 190253Z AUTO 14009KT 10SM -RA FEW039 OVC065 16/13 A3017
RMK AO2 RAB51 SLP132 P0000 60000 T01610133 53017





000
SAUS45 KABQ 190300 COR
MTRCQC
METAR KCQC 190253Z AUTO 14009KT 10SM -RA FEW039 OVC065 16/13 A3017
RMK AO2 RAB51 SLP132 P0000 60000 T01610133 53017





000
SAUS45 KABQ 190256 COR
MTRCQC
METAR KCQC 190253Z AUTO 14009KT 10SM -RA FEW039 OVC065 16/13 A3017
RMK AO2 RAB51 SLP132 P0000 60000 T01610133 53017





000
SAUS45 KABQ 190255 COR
MTRCQC
METAR KCQC 190253Z AUTO 14009KT 10SM -RA FEW039 OVC065 16/13 A3017
RMK AO2 RAB51 SLP132 P0000 60000 T01610133 53017





000
SAUS45 KABQ 190254
MTRCQC
METAR KCQC 190253Z AUTO 14009KT 10SM -RA FEW039 OVC065 16/13 A3017
RMK AO2 RAB51 SLP132 P0000 60000 T01610133 53017





000
SAUS45 KABQ 190254
MTRTCS
METAR KTCS 190253Z AUTO 00000KT 10SM CLR 19/17 A3000 RMK AO2 SLP093
T01940172 53007 TSNO





000
SAUS45 KABQ 190253
MTRABQ
METAR KABQ 190252Z 14008KT 10SM FEW035 FEW050 BKN120 BKN180 21/14
A3005 RMK AO2 SLP110 MTNS OBSC E AND SE T02060139 53022





000
SAUS45 KABQ 190154
MTRTCS
METAR KTCS 190153Z AUTO 15003KT 10SM CLR 20/17 A2999 RMK AO2 SLP089
T02000167 TSNO





000
SAUS45 KABQ 190154
MTRCQC
METAR KCQC 190153Z AUTO 11008KT 10SM BKN080 18/11 A3013 RMK AO2
SLP114 T01830106





000
SAUS45 KABQ 190153
MTRABQ
METAR KABQ 190152Z 17011KT 10SM FEW035 FEW070 SCT120 BKN180 22/13
A3002 RMK AO2 SLP101 MTNS OBSC SE T02170133





000
SAUS45 KABQ 190055
MTRCQC
METAR KCQC 190053Z AUTO 11010KT 10SM FEW032 19/11 A3012 RMK AO2
SLP114 T01890111





000
SAUS45 KABQ 190054
MTRTCS
METAR KTCS 190053Z AUTO 00000KT 10SM CLR 21/16 A2999 RMK AO2 SLP086
T02060156 TSNO





000
SAUS45 KABQ 190053
MTRABQ
METAR KABQ 190052Z 17013KT 10SM FEW035 FEW080 SCT100 SCT170 23/13
A2999 RMK AO2 SLP087 MTNS OBSC SE T02330133





000
SAUS45 KABQ 190000 COR
MTRCQC
METAR KCQC 182353Z AUTO 14012KT 10SM SCT040 SCT060 20/11 A3011 RMK
AO2 SLP111 T02000111 10239 20200 55001





000
SAUS45 KABQ 182356 COR
MTRCQC
METAR KCQC 182353Z AUTO 14012KT 10SM SCT040 SCT060 20/11 A3011 RMK
AO2 SLP111 T02000111 10239 20200 55001





000
SAUS45 KABQ 182355 COR
MTRCQC
METAR KCQC 182353Z AUTO 14012KT 10SM SCT040 SCT060 20/11 A3011 RMK
AO2 SLP111 T02000111 10239 20200 55001





000
SAUS45 KABQ 182354
MTRCQC
METAR KCQC 182353Z AUTO 14012KT 10SM SCT040 SCT060 20/11 A3011 RMK
AO2 SLP111 T02000111 10239 20200 55001





000
SAUS45 KABQ 182354
MTRTCS
METAR KTCS 182353Z AUTO 00000KT 10SM CLR 21/15 A2998 RMK AO2 SLP085
60001 T02060150 10211 20183 56007 TSNO





000
SAUS45 KABQ 182353
MTRABQ
METAR KABQ 182352Z 19015KT 10SM FEW065 SCT080 SCT170 26/12 A2998 RMK
AO2 SLP077 T02560117 10272 20233 55005





000
SAUS45 KABQ 182254
MTRCQC
METAR KCQC 182253Z AUTO 11008G16KT 10SM BKN042 BKN050 22/11 A3010
RMK AO2 SLP104 T02220106





000
SAUS45 KABQ 182254
MTRTCS
METAR KTCS 182253Z AUTO 00000KT 10SM CLR 21/16 A2999 RMK AO2 SLP085
T02110156 TSNO





000
SAUS45 KABQ 182253
MTRABQ
METAR KABQ 182252Z 17007KT 10SM FEW070 FEW095 SCT160 SCT250 27/10
A2997 RMK AO2 SLP071 T02720100





000
SAUS45 KABQ 182154
MTRCQC
METAR KCQC 182153Z AUTO 07011G18KT 10SM CLR 23/06 A3010 RMK AO2
SLP100 T02280056





000
SAUS45 KABQ 182154
MTRTCS
METAR KTCS 182153Z AUTO VRB03KT 10SM FEW110 21/16 A2999 RMK AO2
RAB2054E10 SLP087 P0000 T02060156 TSNO





000
SAUS45 KABQ 182153
MTRABQ
METAR KABQ 182152Z 19012G16KT 10SM FEW070 SCT180 SCT250 27/10 A2998
RMK AO2 SLP072 T02720100





000
SAUS45 KABQ 182054
MTRCQC
METAR KCQC 182053Z AUTO 08014G23KT 10SM CLR 23/07 A3011 RMK AO2
SLP101 T02330072 58014





000
SAUS45 KABQ 182054
MTRTCS
METAR KTCS 182053Z AUTO 20006KT 10SM SCT014 SCT029 BKN040 19/16
A3001 RMK AO2 RAE47 SLP094 P0001 60001 T01940156 58012 TSNO





000
SAUS45 KABQ 182053
MTRABQ
METAR KABQ 182052Z 22007KT 200V260 10SM FEW080 FEW170 SCT250 27/10
A3000 RMK AO2 SLP078 T02670100 58022





000
SAUS45 KABQ 182034
MTRTCS
SPECI KTCS 182033Z AUTO 17004KT 10SM -RA BKN015 BKN027 OVC038 19/16
A3002 RMK AO2 P0001 T01890161 TSNO





000
SAUS45 KABQ 181955
MTRTCS
METAR KTCS 181953Z AUTO 14007KT 10SM -RA OVC100 18/16 A3003 RMK AO2
RAB14 SLP104 P0000 T01830156 TSNO





000
SAUS45 KABQ 181954
MTRCQC
METAR KCQC 181953Z AUTO 09017G23KT 10SM CLR 23/05 A3012 RMK AO2
SLP106 T02280050





000
SAUS45 KABQ 181953
MTRABQ
METAR KABQ 181952Z 25007KT 10SM FEW070 FEW160 SCT250 26/10 A3002 RMK
AO2 SLP089 T02560100





000
SAUS45 KABQ 181854
MTRTCS
METAR KTCS 181853Z AUTO 18008KT 10SM FEW032 FEW039 OVC100 19/17
A3004 RMK AO2 RAB41E48 SLP104 P0000 T01940167 TSNO





000
SAUS45 KABQ 181854
MTRCQC
METAR KCQC 181853Z AUTO 10016G20KT 10SM CLR 23/04 A3015 RMK AO2
SLP112 T02280039





000
SAUS45 KABQ 181853
MTRABQ
METAR KABQ 181852Z 00000KT 10SM FEW070 FEW100 FEW180 25/09 A3005 RMK
AO2 SLP099 T02500094





000
SAUS45 KABQ 181754
MTRTCS
METAR KTCS 181753Z AUTO 14006KT 10SM FEW015 BKN100 20/17 A3005 RMK
AO2 SLP107 60001 T02000167 10206 20172 52001 TSNO





000
SAUS45 KABQ 181754
MTRCQC
METAR KCQC 181753Z AUTO 09011G16KT 10SM CLR 23/05 A3016 RMK AO2
SLP116 T02280050 10228 20122 58002





000
SAUS45 KABQ 181753
MTRABQ
METAR KABQ 181752Z 34006KT 10SM FEW060 FEW100 FEW180 23/11 A3007 RMK
AO2 SLP111 T02330111 10233 20144 58007





000
SAUS45 KABQ 181654
MTRTCS
METAR KTCS 181653Z AUTO 12003KT 10SM OVC095 21/15 A3005 RMK AO2
SLP106 T02060150 TSNO





000
SAUS45 KABQ 181654
MTRCQC
METAR KCQC 181653Z AUTO 06006KT 10SM CLR 21/07 A3017 RMK AO2 SLP122
T02110067





000
SAUS45 KABQ 181653
MTRABQ
METAR KABQ 181652Z VRB05KT 10SM FEW050 FEW100 FEW180 21/11 A3010 RMK
AO2 SLP120 T02110111





    US Dept of Commerce
    National Oceanic and Atmospheric Administration
    National Weather Service
    1325 East West Highway
    Silver Spring, MD 20910
    Page Author: NWS Internet Services Team
Disclaimer
Information Quality
Credits
Glossary
Privacy Policy
Freedom of Information Act (FOIA)
About Us
Career Opportunities